Time;durP1;ratioP1;P1;durP2;ratioP2;P2;SDS_P1;SDS_P2;PMS_P1;PMS_P2;Temp;Humidity;BMP_temperature;BMP_pressure;BME280_temperature;BME280_humidity;BME280_pressure;Samples;Min_cycle;Max_cycle;Signal;HPM_P1;HPM_P2
2023/01/04 00:01:09;;;;;;;18.25;15.78;;;;;;;10.15;67.64;102525.89;1748578;80;21089;-58
2023/01/04 00:03:35;;;;;;;17.40;15.70;;;;;;;10.21;67.34;102523.34;1748539;81;21083;-58
2023/01/04 00:06:04;;;;;;;18.52;15.55;;;;;;;10.22;67.26;102523.80;1767583;80;21512;-58
2023/01/04 00:08:30;;;;;;;18.75;15.28;;;;;;;10.24;67.17;102522.08;1755241;80;21113;-58
2023/01/04 00:11:06;;;;;;;16.37;14.45;;;;;;;10.21;67.17;102524.64;1755678;80;21046;-58
2023/01/04 00:13:33;;;;;;;17.82;15.40;;;;;;;10.13;67.39;102531.09;1703722;83;21071;-58
2023/01/04 00:16:07;;;;;;;18.87;16.00;;;;;;;10.12;67.54;102532.39;1715707;83;21046;-58
2023/01/04 00:18:35;;;;;;;19.30;16.00;;;;;;;10.13;67.48;102535.41;1697246;83;21086;-59
2023/01/04 00:21:13;;;;;;;17.23;15.28;;;;;;;10.25;67.01;102535.52;1698275;83;21041;-58
2023/01/04 00:23:42;;;;;;;17.52;14.95;;;;;;;10.30;66.81;102533.83;1707221;83;21533;-58
2023/01/04 00:26:14;;;;;;;18.87;15.32;;;;;;;10.32;66.67;102534.71;1702764;83;21058;-58
2023/01/04 00:28:40;;;;;;;17.27;14.90;;;;;;;10.25;66.74;102523.80;1706764;83;21038;-58
2023/01/04 00:31:09;;;;;;;16.97;15.18;;;;;;;10.29;66.65;102529.47;1662102;85;21531;-58
2023/01/04 00:33:36;;;;;;;16.87;15.05;;;;;;;10.29;66.53;102534.67;1703231;83;21081;-58
2023/01/04 00:36:10;;;;;;;19.17;15.60;;;;;;;10.29;66.51;102538.58;1688555;84;21073;-58
2023/01/04 00:38:37;;;;;;;16.73;14.65;;;;;;;10.28;66.50;102543.36;1704289;83;21038;-58
2023/01/04 00:41:04;;;;;;;17.17;15.08;;;;;;;10.26;66.53;102542.02;1671576;85;21097;-58
2023/01/04 00:43:32;;;;;;;16.93;14.33;;;;;;;10.27;66.59;102541.59;1648558;86;21071;-58
2023/01/04 00:46:00;;;;;;;20.10;14.38;;;;;;;10.27;66.63;102541.59;1637066;86;22504;-59
2023/01/04 00:48:28;;;;;;;16.12;14.13;;;;;;;10.29;66.50;102542.48;1641286;86;21132;-58
2023/01/04 00:50:55;;;;;;;16.62;14.83;;;;;;;10.11;67.18;102538.44;1686220;83;21025;-58
2023/01/04 00:53:22;;;;;;;15.98;14.38;;;;;;;10.23;66.87;102538.11;1656496;85;21569;-58
2023/01/04 00:55:49;;;;;;;16.05;14.45;;;;;;;10.25;66.72;102540.72;1645710;86;21098;-58
2023/01/04 00:58:15;;;;;;;18.23;14.33;;;;;;;10.12;67.15;102544.09;1654641;86;21113;-58
2023/01/04 01:00:42;;;;;;;16.45;13.48;;;;;;;10.10;67.15;102544.06;1651485;86;21139;-58
2023/01/04 01:03:09;;;;;;;17.40;13.70;;;;;;;10.22;66.76;102543.31;1648131;86;21035;-58
2023/01/04 01:05:35;;;;;;;16.73;13.83;;;;;;;10.25;66.55;102551.13;1651708;86;21066;-58
2023/01/04 01:08:23;;;;;;;16.37;14.33;;;;;;;10.23;66.42;102549.81;1644381;86;21570;-58
2023/01/04 01:10:33;;;;;;;14.68;13.08;;;;;;;10.22;66.42;102561.52;1658697;83;21078;-58
2023/01/04 01:13:02;;;;;;;15.53;13.70;;;;;;;10.19;66.47;102557.58;1683559;83;21043;-58
2023/01/04 01:15:29;;;;;;;14.60;12.85;;;;;;;10.15;66.40;102555.39;1754725;80;21042;-58
2023/01/04 01:17:57;;;;;;;14.75;13.22;;;;;;;10.08;66.51;102551.36;1745240;80;21160;-57
2023/01/04 01:20:24;;;;;;;14.78;13.13;;;;;;;10.01;66.64;102548.28;1744289;80;21048;-58
2023/01/04 01:22:50;;;;;;;13.62;12.15;;;;;;;10.00;66.76;102555.20;1746736;80;21062;-57
2023/01/04 01:25:17;;;;;;;14.15;12.65;;;;;;;9.98;66.81;102554.32;1754202;80;21530;-58
2023/01/04 01:27:43;;;;;;;15.75;13.53;;;;;;;9.96;66.80;102552.56;1759153;80;21058;-58
2023/01/04 01:30:11;;;;;;;16.30;13.50;;;;;;;9.94;66.85;102554.27;1780857;80;21022;-58
2023/01/04 01:32:39;;;;;;;14.90;12.40;;;;;;;9.91;67.02;102547.77;1768315;80;21046;-58
2023/01/04 01:35:07;;;;;;;16.57;13.35;;;;;;;9.90;66.96;102542.98;1744646;80;21089;-58
2023/01/04 01:37:34;;;;;;;16.90;13.55;;;;;;;9.84;66.96;102541.20;1751842;80;21034;-58
2023/01/04 01:40:00;;;;;;;15.80;13.32;;;;;;;9.72;67.49;102539.80;1761243;80;21015;-58
2023/01/04 01:42:28;;;;;;;16.35;13.53;;;;;;;9.70;67.60;102553.20;1689224;83;21108;-58
2023/01/04 01:45:09;;;;;;;14.50;12.85;;;;;;;9.68;67.69;102545.81;1708821;83;21012;-58
2023/01/04 01:47:44;;;;;;;15.32;13.10;;;;;;;9.70;67.68;102547.12;1695469;84;21022;-58
2023/01/04 01:50:24;;;;;;;16.02;13.48;;;;;;;9.70;67.91;102547.12;1710069;83;21074;-58
2023/01/04 01:52:51;;;;;;;18.17;13.05;;;;;;;9.74;67.75;102547.17;1713238;83;21167;-57
2023/01/04 01:55:18;;;;;;;13.98;12.28;;;;;;;9.75;67.68;102547.60;1758760;80;21548;-58
2023/01/04 01:57:45;;;;;;;16.75;13.20;;;;;;;9.71;67.57;102544.53;1748086;80;21043;-58
2023/01/04 02:00:13;;;;;;;14.73;12.25;;;;;;;9.78;67.52;102547.65;1739694;80;21002;-58
2023/01/04 02:03:14;;;;;;;16.77;12.82;;;;;;;9.72;67.70;102544.98;1751494;80;21043;-58
2023/01/04 02:05:41;;;;;;;15.13;13.18;;;;;;;9.75;67.78;102551.50;1684352;83;21058;-58
2023/01/04 02:08:08;;;;;;;13.85;12.00;;;;;;;9.84;67.64;102547.70;1690071;83;21108;-58
2023/01/04 02:10:34;;;;;;;14.28;12.78;;;;;;;9.89;67.49;102548.17;1690600;83;21060;-58
2023/01/04 02:13:05;;;;;;;15.20;12.88;;;;;;;9.92;67.59;102548.19;1686024;84;21034;-58
2023/01/04 02:15:52;;;;;;;13.90;12.23;;;;;;;9.95;67.51;102545.63;1699569;83;21017;-58
2023/01/04 02:18:27;;;;;;;13.38;11.97;;;;;;;9.98;67.34;102544.34;1689535;83;21094;-59
2023/01/04 02:21:04;;;;;;;13.48;12.03;;;;;;;10.00;67.42;102554.33;1696005;83;21082;-58
2023/01/04 02:23:51;;;;;;;13.08;11.78;;;;;;;10.03;67.29;102551.77;1682895;84;21081;-58
2023/01/04 02:26:47;;;;;;;15.08;13.48;;;;;;;10.04;67.03;102552.20;1686626;83;21037;-58
2023/01/04 02:29:30;;;;;;;15.18;12.98;;;;;;;10.03;66.99;102566.08;1688833;83;21089;-58
2023/01/04 02:32:05;;;;;;;15.35;12.28;;;;;;;10.04;67.04;102561.30;1682852;83;22336;-58
2023/01/04 02:34:52;;;;;;;14.23;12.58;;;;;;;10.06;66.94;102568.69;1675090;83;21022;-58
2023/01/04 02:37:39;;;;;;;14.73;13.22;;;;;;;10.05;66.83;102563.94;1652975;84;21023;-58
2023/01/04 02:40:28;;;;;;;14.33;12.25;;;;;;;10.05;66.85;102560.45;1650158;85;21073;-58
2023/01/04 02:46:00;;;;;;;14.45;11.90;;;;;;;10.05;66.95;102558.73;1588491;89;21099;-58
2023/01/04 02:51:27;;;;;;;13.68;12.18;;;;;;;10.12;66.95;102564.91;1576568;89;21578;-58
2023/01/04 02:53:55;;;;;;;13.13;11.78;;;;;;;10.16;66.76;102557.56;1593821;89;21053;-58
2023/01/04 02:56:35;;;;;;;14.33;11.78;;;;;;;10.18;66.70;102560.59;1583714;89;21618;-58
2023/01/04 02:59:24;;;;;;;14.70;12.23;;;;;;;10.18;66.55;102563.20;1575819;89;21114;-57
2023/01/04 03:08:50;;;;;;;13.98;11.97;;;;;;;10.22;66.21;102561.52;1550680;92;21085;-58
2023/01/04 03:14:26;;;;;;;14.23;11.88;;;;;;;10.15;66.35;102554.51;1518468;93;21110;-58
2023/01/04 03:16:52;;;;;;;14.15;11.80;;;;;;;10.18;66.48;102562.35;1547375;92;21106;-58
2023/01/04 03:35:21;;;;;;;13.10;11.35;;;;;;;10.19;66.30;102552.37;1513995;92;21633;-58
2023/01/04 03:35:55;;;;;;;12.80;11.35;;;;;;;10.24;66.37;102544.19;1507211;95;21162;-58
2023/01/04 03:50:26;;;;;;;12.47;11.18;;;;;;;10.25;66.19;102570.63;1440002;98;21164;-58
2023/01/04 03:52:53;;;;;;;13.43;11.30;;;;;;;10.21;66.25;102580.57;1446389;98;21113;-58
2023/01/04 03:55:19;;;;;;;13.43;11.35;;;;;;;10.17;66.36;102578.80;1439210;99;21172;-57
2023/01/04 03:57:46;;;;;;;12.43;11.12;;;;;;;10.16;66.41;102575.78;1436912;99;21163;-58
2023/01/04 04:00:15;;;;;;;14.28;12.20;;;;;;;10.15;66.55;102578.80;1439441;98;21175;-57
2023/01/04 04:02:46;;;;;;;15.38;12.35;;;;;;;10.17;66.57;102571.00;1417822;100;21606;-58
2023/01/04 04:10:48;;;;;;;13.88;12.10;;;;;;;10.24;66.69;102572.81;1461434;96;21279;-57
2023/01/04 04:13:15;;;;;;;14.40;11.22;;;;;;;10.28;66.57;102582.37;1488739;95;21189;-58
2023/01/04 04:15:41;;;;;;;14.43;11.53;;;;;;;10.32;66.56;102575.05;1470189;96;21225;-58
2023/01/04 04:18:09;;;;;;;13.20;11.80;;;;;;;10.35;66.38;102577.66;1460216;97;21143;-58
2023/01/04 04:20:36;;;;;;;14.00;12.47;;;;;;;10.38;66.39;102578.99;1440794;98;21119;-58
2023/01/04 04:23:02;;;;;;;14.80;12.23;;;;;;;10.37;66.26;102574.63;1449340;92;21612;-58
2023/01/04 04:25:29;;;;;;;13.13;11.20;;;;;;;10.36;66.23;102571.61;1580728;89;21086;-58
2023/01/04 04:27:56;;;;;;;14.65;11.78;;;;;;;10.37;66.35;102574.63;1549988;91;21110;-57
2023/01/04 04:30:23;;;;;;;13.43;12.03;;;;;;;10.39;66.16;102581.59;1556156;91;21701;-57
2023/01/04 04:32:49;;;;;;;14.65;12.10;;;;;;;10.39;66.06;102592.42;1566715;89;21165;-57
2023/01/04 04:35:16;;;;;;;16.07;13.05;;;;;;;10.38;66.12;102597.20;1564247;90;21184;-58
2023/01/04 04:37:43;;;;;;;15.58;13.03;;;;;;;10.38;66.04;102599.81;1574224;89;21093;-58
2023/01/04 04:41:37;;;;;;;15.25;13.45;;;;;;;10.38;66.16;102607.62;1621086;87;21150;-57
2023/01/04 04:42:40;;;;;;;13.75;12.15;;;;;;;10.37;66.09;102603.25;1642846;87;21082;-58
2023/01/04 04:45:09;;;;;;;14.45;12.28;;;;;;;10.37;66.04;102609.77;1663570;85;21592;-58
2023/01/04 04:47:35;;;;;;;15.18;13.58;;;;;;;10.34;65.99;102614.95;1653913;85;21079;-58
2023/01/04 04:50:02;;;;;;;16.07;12.90;;;;;;;10.31;66.12;102606.69;1713979;82;21001;-58
2023/01/04 04:52:29;;;;;;;15.10;13.48;;;;;;;10.28;66.26;102616.20;1709546;83;21082;-58
2023/01/04 04:54:56;;;;;;;14.35;12.78;;;;;;;10.26;66.32;102616.63;1717638;82;21061;-58
2023/01/04 04:57:22;;;;;;;15.08;13.50;;;;;;;10.26;66.43;102619.22;1783098;80;21452;-58
2023/01/04 04:59:49;;;;;;;18.20;13.10;;;;;;;10.27;66.45;102625.73;1717493;82;21102;-58
2023/01/04 05:02:16;;;;;;;16.32;13.13;;;;;;;10.28;66.46;102625.31;1693105;83;21164;-58
2023/01/04 05:04:42;;;;;;;15.03;13.05;;;;;;;10.30;66.38;102620.99;1710953;82;21030;-58
2023/01/04 05:07:09;;;;;;;16.10;12.78;;;;;;;10.31;66.46;102631.83;1694829;83;21574;-58
2023/01/04 05:09:36;;;;;;;14.50;12.80;;;;;;;10.37;66.28;102631.88;1700059;83;21074;-58
2023/01/04 05:14:49;;;;;;;16.93;13.20;;;;;;;10.39;66.17;102635.37;1747500;80;21086;-58
2023/01/04 05:17:16;;;;;;;14.95;12.33;;;;;;;10.49;65.90;102637.19;1760642;80;21529;-58
2023/01/04 05:19:44;;;;;;;14.23;11.93;;;;;;;10.53;65.69;102641.59;1771463;80;21030;-58
2023/01/04 05:22:11;;;;;;;13.55;11.97;;;;;;;10.45;65.85;102638.02;1773858;80;21034;-58
2023/01/04 05:24:38;;;;;;;15.40;12.53;;;;;;;10.42;65.84;102635.41;1758639;80;21514;-58
2023/01/04 05:27:06;;;;;;;15.78;12.88;;;;;;;10.41;65.89;102634.95;1751674;80;21549;-58
2023/01/04 05:32:19;;;;;;;13.00;11.57;;;;;;;10.42;65.80;102633.69;1754644;80;21058;-58
2023/01/04 05:34:45;;;;;;;13.75;12.25;;;;;;;10.43;65.81;102642.34;1699380;83;21037;-58
2023/01/04 05:37:12;;;;;;;13.78;12.25;;;;;;;10.40;65.78;102632.80;1706544;83;21067;-58
2023/01/04 05:39:39;;;;;;;13.72;12.30;;;;;;;10.43;65.80;102643.22;1770957;80;21062;-58
2023/01/04 05:42:26;;;;;;;12.98;11.63;;;;;;;10.45;65.67;102642.80;1757568;80;20983;-58
2023/01/04 05:44:54;;;;;;;15.48;12.80;;;;;;;10.47;65.61;102650.62;1735297;80;21071;-57
2023/01/04 05:47:21;;;;;;;13.38;11.97;;;;;;;10.49;65.61;102646.30;1751949;80;21527;-58
2023/01/04 05:49:48;;;;;;;12.68;11.15;;;;;;;10.50;65.42;102648.94;1748588;81;21054;-58
2023/01/04 05:52:15;;;;;;;13.83;11.12;;;;;;;10.50;65.33;102655.44;1760803;80;21526;-58
2023/01/04 05:54:41;;;;;;;14.33;12.20;;;;;;;10.50;65.29;102659.77;1751958;80;21042;-57
2023/01/04 05:57:08;;;;;;;14.03;11.83;;;;;;;10.47;65.35;102654.52;1772650;80;21545;-58
2023/01/04 05:59:36;;;;;;;15.90;11.18;;;;;;;10.47;65.36;102659.72;1776280;80;21566;-58
2023/01/04 06:02:03;;;;;;;15.28;11.75;;;;;;;10.51;65.30;102664.09;1762532;80;21022;-58
2023/01/04 06:04:30;;;;;;;16.15;11.65;;;;;;;10.53;65.13;102663.72;1768915;80;21086;-57
2023/01/04 06:06:57;;;;;;;12.40;10.80;;;;;;;10.49;65.00;102671.91;1758456;80;21574;-58
2023/01/04 06:09:25;;;;;;;13.93;11.20;;;;;;;10.46;65.08;102665.81;1761446;80;21096;-57
2023/01/04 06:11:52;;;;;;;13.43;11.05;;;;;;;10.41;65.08;102664.88;1782942;80;21085;-58
2023/01/04 06:14:18;;;;;;;10.88;9.73;;;;;;;10.41;65.07;102667.48;1750053;80;21057;-58
2023/01/04 06:16:45;;;;;;;13.43;10.03;;;;;;;10.40;65.01;102673.14;1761270;80;21079;-58
2023/01/04 06:19:12;;;;;;;12.90;10.53;;;;;;;10.40;65.02;102674.86;1776214;80;21038;-58
2023/01/04 06:21:38;;;;;;;11.88;9.75;;;;;;;10.38;65.00;102673.55;1775756;80;21073;-58
2023/01/04 06:24:05;;;;;;;13.10;10.58;;;;;;;10.40;64.98;102678.77;1760313;80;21014;-59
2023/01/04 06:26:33;;;;;;;12.63;10.60;;;;;;;10.40;64.86;102678.77;1738463;80;21637;-57
2023/01/04 06:28:59;;;;;;;12.93;9.75;;;;;;;10.41;64.94;102680.48;1758933;80;21037;-57
2023/01/04 06:31:26;;;;;;;14.23;11.80;;;;;;;10.42;64.78;102677.05;1737698;80;21506;-57
2023/01/04 06:33:52;;;;;;;12.68;9.93;;;;;;;10.42;64.83;102688.34;1770552;80;21054;-57
2023/01/04 06:36:19;;;;;;;11.83;10.43;;;;;;;10.47;64.60;102694.86;1749402;80;21616;-58
2023/01/04 06:38:45;;;;;;;12.80;11.00;;;;;;;10.47;64.62;102700.06;1765908;80;21041;-58
2023/01/04 06:41:12;;;;;;;14.07;10.20;;;;;;;10.51;64.50;102695.33;1778473;80;21034;-57
2023/01/04 06:43:39;;;;;;;12.23;10.32;;;;;;;10.53;64.29;102698.85;1753833;80;21062;-58
2023/01/04 06:46:06;;;;;;;11.22;9.83;;;;;;;10.55;64.28;102702.34;1759238;80;21042;-57
2023/01/04 06:48:33;;;;;;;10.68;9.58;;;;;;;10.58;64.21;102712.77;1758884;81;21029;-57
2023/01/04 06:51:00;;;;;;;12.68;10.15;;;;;;;10.60;64.03;102713.66;1779869;80;21089;-57
2023/01/04 06:53:26;;;;;;;11.78;9.48;;;;;;;10.60;63.98;102704.54;1746168;81;21098;-58
2023/01/04 06:55:53;;;;;;;10.88;9.20;;;;;;;10.61;63.95;102707.14;1764718;80;21059;-58
2023/01/04 06:58:19;;;;;;;11.18;9.85;;;;;;;10.61;63.91;102715.41;1751796;80;21047;-57
2023/01/04 07:00:46;;;;;;;13.60;10.38;;;;;;;10.59;63.82;102722.34;1757227;80;21056;-58
2023/01/04 07:03:13;;;;;;;12.60;10.03;;;;;;;10.56;63.94;102718.39;1747712;80;21015;-58
2023/01/04 07:05:41;;;;;;;10.30;9.03;;;;;;;10.57;63.89;102717.09;1782735;80;21030;-58
2023/01/04 07:08:07;;;;;;;12.55;10.53;;;;;;;10.59;63.81;102717.13;1756934;80;21035;-57
2023/01/04 07:10:34;;;;;;;12.35;10.30;;;;;;;10.59;63.72;102723.64;1767727;80;21006;-58
2023/01/04 07:13:01;;;;;;;12.00;9.90;;;;;;;10.58;63.73;102729.69;1784275;80;21541;-58
2023/01/04 07:15:28;;;;;;;14.07;11.00;;;;;;;10.61;63.50;102725.83;1768317;80;21081;-58
2023/01/04 07:17:54;;;;;;;12.85;9.83;;;;;;;10.62;63.38;102725.83;1722584;82;21018;-57
2023/01/04 07:20:21;;;;;;;16.48;11.70;;;;;;;10.63;63.30;102724.11;1722551;81;21537;-57
2023/01/04 07:22:49;;;;;;;12.98;9.75;;;;;;;10.65;63.16;102722.39;1714052;82;21023;-58
2023/01/04 07:25:16;;;;;;;11.80;9.65;;;;;;;10.67;63.01;102721.97;1710291;83;21035;-58
2023/01/04 07:27:42;;;;;;;11.60;10.28;;;;;;;10.68;63.00;102727.61;1695870;83;21149;-57
2023/01/04 07:30:12;;;;;;;10.93;9.50;;;;;;;10.70;62.82;102722.41;1702356;83;21115;-57
2023/01/04 07:32:38;;;;;;;11.15;8.98;;;;;;;10.73;62.62;102723.33;1693383;83;20994;-57
2023/01/04 07:35:07;;;;;;;13.32;9.58;;;;;;;10.75;62.46;102733.33;1766785;80;21047;-58
2023/01/04 07:37:35;;;;;;;13.18;9.65;;;;;;;10.76;62.15;102741.56;1757727;80;20999;-58
2023/01/04 07:40:02;;;;;;;13.32;9.08;;;;;;;10.74;62.04;102730.27;1783964;80;21097;-58
2023/01/04 07:42:30;;;;;;;11.15;8.88;;;;;;;10.74;62.04;102735.47;1765242;80;21026;-57
2023/01/04 07:44:56;;;;;;;10.28;9.15;;;;;;;10.76;61.86;102736.36;1773684;80;20966;-57
2023/01/04 07:47:23;;;;;;;11.53;9.75;;;;;;;10.76;61.63;102736.36;1752879;80;21074;-57
2023/01/04 07:49:49;;;;;;;9.40;8.40;;;;;;;10.77;61.52;102751.56;1758194;80;21518;-57
2023/01/04 07:52:17;;;;;;;9.33;7.83;;;;;;;10.69;61.74;102765.82;1749583;80;21058;-57
2023/01/04 07:54:44;;;;;;;10.50;8.53;;;;;;;10.76;61.44;102767.61;1744290;80;21054;-58
2023/01/04 07:57:10;;;;;;;11.93;9.20;;;;;;;10.68;61.65;102762.76;1747495;80;21042;-57
2023/01/04 07:59:38;;;;;;;8.90;7.97;;;;;;;10.56;62.21;102761.34;1768593;80;21058;-58
2023/01/04 08:02:05;;;;;;;9.83;8.65;;;;;;;10.57;62.31;102765.70;1757448;80;20993;-57
2023/01/04 08:04:31;;;;;;;11.68;9.28;;;;;;;10.57;62.36;102770.91;1775457;80;21038;-57
2023/01/04 08:06:58;;;;;;;10.53;8.95;;;;;;;10.71;62.08;102775.82;1760556;80;21073;-57
2023/01/04 08:09:25;;;;;;;12.18;9.33;;;;;;;10.82;61.71;102778.08;1748456;80;21365;-57
2023/01/04 08:11:52;;;;;;;11.28;9.20;;;;;;;10.81;61.77;102768.95;1756976;80;21494;-58
2023/01/04 08:14:18;;;;;;;11.40;10.23;;;;;;;10.78;61.97;102758.53;1765837;80;21078;-57
2023/01/04 08:16:45;;;;;;;12.13;10.00;;;;;;;10.78;61.93;102761.13;1771230;80;21064;-57
2023/01/04 08:19:18;;;;;;;10.38;8.85;;;;;;;10.78;61.92;102760.68;1755696;80;21113;-57
2023/01/04 08:21:45;;;;;;;10.15;8.75;;;;;;;10.79;61.95;102760.26;1663286;86;21095;-57
2023/01/04 08:24:16;;;;;;;9.58;8.08;;;;;;;10.81;61.80;102770.26;1644957;86;21109;-57
2023/01/04 08:26:43;;;;;;;10.75;8.43;;;;;;;10.78;61.65;102776.30;1652945;86;21093;-57
2023/01/04 08:29:10;;;;;;;11.25;8.90;;;;;;;10.76;61.42;102768.91;1615401;88;21548;-57
2023/01/04 08:31:36;;;;;;;9.80;8.53;;;;;;;10.74;61.34;102763.27;1634649;86;21088;-58
2023/01/04 08:34:06;;;;;;;10.10;8.68;;;;;;;10.73;61.42;102766.71;1636610;86;21507;-57
2023/01/04 08:36:36;;;;;;;12.18;9.13;;;;;;;10.72;61.48;102771.04;1629323;86;21044;-57
2023/01/04 08:39:04;;;;;;;11.97;9.48;;;;;;;10.72;61.41;102765.83;1605323;88;21105;-57
2023/01/04 08:41:49;;;;;;;14.45;9.33;;;;;;;10.75;61.32;102764.58;1589129;89;21055;-57
2023/01/04 08:44:02;;;;;;;13.58;9.05;;;;;;;10.77;61.31;102775.00;1604569;88;21122;-57
2023/01/04 08:46:29;;;;;;;11.93;8.88;;;;;;;10.79;61.28;102766.77;1616393;88;21097;-57
2023/01/04 08:48:57;;;;;;;10.48;9.28;;;;;;;10.84;61.26;102768.55;1616754;87;21091;-58
2023/01/04 08:51:23;;;;;;;11.40;9.03;;;;;;;10.86;61.21;102768.58;1614510;88;21077;-58
2023/01/04 08:53:50;;;;;;;12.23;9.38;;;;;;;10.87;61.15;102764.68;1619374;87;21553;-58
2023/01/04 08:56:16;;;;;;;10.78;8.78;;;;;;;10.88;61.11;102763.80;1564801;90;21157;-57
2023/01/04 08:58:43;;;;;;;11.35;9.30;;;;;;;10.88;61.01;102764.26;1612220;87;21665;-57
2023/01/04 09:01:10;;;;;;;12.63;8.80;;;;;;;10.89;60.95;102764.27;1621654;88;21085;-57
2023/01/04 09:03:38;;;;;;;12.80;8.93;;;;;;;10.90;61.00;102758.18;1584402;89;21142;-57
2023/01/04 09:06:08;;;;;;;10.25;9.15;;;;;;;10.92;60.96;102756.45;1603584;88;21169;-57
2023/01/04 09:08:36;;;;;;;11.97;9.58;;;;;;;10.94;60.95;102752.59;1622521;88;21519;-58
2023/01/04 09:11:06;;;;;;;12.68;9.35;;;;;;;10.94;61.02;102746.92;1626662;88;21095;-57
2023/01/04 09:13:34;;;;;;;10.75;8.53;;;;;;;10.95;61.03;102751.29;1575532;89;21093;-57
2023/01/04 09:16:02;;;;;;;12.63;9.70;;;;;;;10.96;60.89;102755.66;1527792;92;21048;-58
2023/01/04 09:18:29;;;;;;;11.65;9.95;;;;;;;10.95;60.76;102746.08;1566429;91;21130;-57
2023/01/04 09:20:56;;;;;;;9.53;8.28;;;;;;;10.90;60.73;102747.76;1589511;89;21051;-57
2023/01/04 09:23:23;;;;;;;12.03;9.35;;;;;;;10.86;60.57;102755.56;1590528;88;21181;-57
2023/01/04 09:25:50;;;;;;;10.45;8.45;;;;;;;10.85;60.26;102758.59;1632507;86;21539;-58
2023/01/04 09:28:16;;;;;;;9.88;8.70;;;;;;;10.84;59.97;102745.11;1643083;86;21077;-57
2023/01/04 09:30:42;;;;;;;10.40;8.10;;;;;;;10.81;59.62;102737.28;1643645;85;21177;-57
2023/01/04 09:33:09;;;;;;;11.00;8.80;;;;;;;10.80;59.23;102738.13;1646277;86;21109;-57
2023/01/04 09:35:35;;;;;;;8.23;7.37;;;;;;;10.77;59.12;102738.13;1659876;84;21070;-57
2023/01/04 09:38:02;;;;;;;9.18;7.37;;;;;;;10.76;58.87;102732.45;1705392;83;21558;-57
2023/01/04 09:40:50;;;;;;;9.03;7.45;;;;;;;10.74;58.55;102734.17;1685387;83;21047;-57
2023/01/04 09:43:18;;;;;;;7.50;6.78;;;;;;;10.74;58.63;102732.02;1601595;87;21172;-57
2023/01/04 09:45:45;;;;;;;7.33;6.62;;;;;;;10.74;58.54;102725.51;1591505;88;21113;-57
2023/01/04 09:48:22;;;;;;;9.35;7.53;;;;;;;10.73;58.39;102741.55;1611787;88;21129;-57
2023/01/04 09:51:01;;;;;;;9.50;7.35;;;;;;;10.71;58.18;102735.46;1613019;88;21058;-57
2023/01/04 09:53:41;;;;;;;9.30;6.65;;;;;;;10.69;57.99;102739.78;1603321;88;22147;-57
2023/01/04 09:56:24;;;;;;;7.20;6.40;;;;;;;10.68;57.89;102726.30;1598801;88;21143;-57
2023/01/04 09:58:51;;;;;;;7.28;6.55;;;;;;;10.46;58.15;102716.56;1554183;91;21072;-57
2023/01/04 10:01:30;;;;;;;7.00;6.22;;;;;;;10.38;58.44;102708.69;1550933;91;21162;-57
2023/01/04 10:04:08;;;;;;;7.40;6.60;;;;;;;10.49;58.19;102708.77;1545179;91;21108;-57
2023/01/04 10:06:34;;;;;;;7.08;6.28;;;;;;;10.59;57.71;102706.27;1548101;91;21042;-57
2023/01/04 10:09:05;;;;;;;10.05;5.85;;;;;;;10.61;57.55;102706.30;1542093;91;21105;-57
2023/01/04 10:11:50;;;;;;;7.25;6.03;;;;;;;10.62;57.65;102715.42;1567620;90;21085;-58
2023/01/04 10:14:57;;;;;;;8.08;5.80;;;;;;;10.63;57.29;102713.69;1567176;90;21057;-57
2023/01/04 10:17:59;;;;;;;7.50;6.37;;;;;;;10.64;57.15;102718.91;1523914;93;21070;-57
2023/01/04 10:20:56;;;;;;;7.50;5.80;;;;;;;10.59;56.99;102713.23;1560041;90;21115;-57
2023/01/04 10:23:51;;;;;;;8.15;5.97;;;;;;;10.57;57.19;102707.13;1564617;88;21410;-57
2023/01/04 10:26:25;;;;;;;7.15;6.08;;;;;;;10.50;57.36;102720.52;1495245;95;21116;-57
2023/01/04 10:29:37;;;;;;;7.03;5.80;;;;;;;10.49;57.56;102717.87;1506201;94;21657;-57
2023/01/04 10:32:16;;;;;;;8.08;6.30;;;;;;;10.44;57.51;102713.06;1499081;95;21107;-57
2023/01/04 10:34:45;;;;;;;9.15;6.60;;;;;;;10.40;57.70;102710.88;1454430;97;21592;-57
2023/01/04 10:37:21;;;;;;;8.50;6.20;;;;;;;10.38;57.75;102706.50;1459159;97;21128;-57
2023/01/04 10:39:53;;;;;;;7.35;5.17;;;;;;;10.33;57.65;102701.67;1458720;96;21111;-57
2023/01/04 10:42:29;;;;;;;9.53;6.47;;;;;;;10.31;57.76;102707.28;1459175;97;21151;-57
2023/01/04 10:45:16;;;;;;;6.37;5.72;;;;;;;10.33;57.73;102696.46;1460966;97;21220;-57
2023/01/04 10:48:01;;;;;;;6.87;5.70;;;;;;;10.36;57.80;102698.69;1468875;94;21149;-57
2023/01/04 10:50:50;;;;;;;8.60;5.75;;;;;;;10.37;57.74;102695.21;1487543;95;21141;-57
2023/01/04 10:53:47;;;;;;;9.23;6.05;;;;;;;10.38;57.72;102690.89;1463015;96;21151;-57
2023/01/04 10:56:36;;;;;;;7.65;5.87;;;;;;;10.40;57.62;102693.95;1454975;97;21088;-57
2023/01/04 10:59:34;;;;;;;8.58;6.65;;;;;;;10.45;57.42;102695.28;1449190;97;21168;-57
2023/01/04 11:02:22;;;;;;;9.55;7.30;;;;;;;10.48;57.24;102688.81;1457764;97;21172;-57
2023/01/04 11:05:12;;;;;;;8.95;6.10;;;;;;;10.52;57.01;102691.89;1469930;95;21101;-57
2023/01/04 11:07:44;;;;;;;8.65;6.83;;;;;;;10.54;56.82;102690.17;1481411;95;21600;-57
2023/01/04 11:10:44;;;;;;;7.03;5.60;;;;;;;10.56;56.59;102696.27;1476721;96;21093;-57
2023/01/04 11:13:10;;;;;;;9.75;5.85;;;;;;;10.53;56.55;102696.25;1478156;96;22506;-57
2023/01/04 11:15:37;;;;;;;7.20;5.17;;;;;;;10.49;56.67;102690.54;1477978;97;21110;-57
2023/01/04 11:18:05;;;;;;;6.47;5.37;;;;;;;10.48;56.67;102684.91;1478432;96;21105;-57
2023/01/04 11:20:31;;;;;;;8.18;6.00;;;;;;;10.45;56.51;102677.06;1478486;96;21097;-57
2023/01/04 11:23:03;;;;;;;7.25;5.30;;;;;;;10.44;56.34;102683.14;1478271;96;21233;-57
2023/01/04 11:25:35;;;;;;;7.12;6.42;;;;;;;10.44;56.20;102683.14;1509779;92;21131;-57
2023/01/04 11:28:08;;;;;;;;;;;;;;;10.44;56.27;102676.21;1534925;93;21129;-57
2023/01/04 11:30:43;;;;;;;6.87;5.30;;;;;;;10.45;55.97;102672.73;1566964;89;20107;-57
2023/01/04 11:33:16;;;;;;;5.92;4.85;;;;;;;10.44;55.68;102667.52;1537046;92;21057;-57
2023/01/04 11:35:47;;;;;;;6.83;5.22;;;;;;;10.20;56.19;102671.20;1539735;92;21199;-58
2023/01/04 11:38:24;;;;;;;6.40;4.78;;;;;;;10.14;56.18;102678.48;1544313;92;21548;-57
2023/01/04 11:40:56;;;;;;;8.08;5.60;;;;;;;10.13;56.22;102673.28;1526354;92;21161;-57
2023/01/04 11:43:23;;;;;;;5.50;4.75;;;;;;;10.09;56.18;102670.17;1550789;91;21535;-57
2023/01/04 11:45:56;;;;;;;7.65;5.87;;;;;;;10.06;56.14;102671.42;1558957;91;21151;-57
2023/01/04 11:48:39;;;;;;;5.80;5.12;;;;;;;10.08;56.24;102664.50;1484408;95;21173;-58
2023/01/04 11:51:30;;;;;;;7.00;4.97;;;;;;;10.12;56.19;102659.39;1381065;102;21698;-57
2023/01/04 11:54:15;;;;;;;5.45;4.65;;;;;;;10.35;55.93;102655.72;1425521;98;21674;-57
2023/01/04 11:57:06;;;;;;;6.28;5.05;;;;;;;10.44;55.62;102662.31;1417551;100;21210;-57
2023/01/04 11:59:32;;;;;;;5.75;4.72;;;;;;;10.44;55.48;102654.52;1405179;100;21226;-57
2023/01/04 12:02:24;;;;;;;7.67;4.95;;;;;;;10.45;55.45;102660.14;1414018;100;21177;-57
2023/01/04 12:04:53;;;;;;;5.83;4.60;;;;;;;10.47;55.23;102659.72;1402696;100;21170;-57
2023/01/04 12:07:32;;;;;;;5.58;4.40;;;;;;;10.48;54.80;102662.79;1392219;102;21196;-57
2023/01/04 12:10:01;;;;;;;6.00;4.75;;;;;;;10.50;54.68;102651.96;1381021;103;21140;-57
2023/01/04 12:12:31;;;;;;;5.65;4.30;;;;;;;10.51;54.56;102660.19;1378766;104;21124;-57
2023/01/04 12:15:03;;;;;;;6.28;4.40;;;;;;;10.49;54.70;102659.31;1365461;104;21124;-57
2023/01/04 12:17:57;;;;;;;4.72;4.20;;;;;;;10.48;54.54;102658.88;1341290;106;21158;-57
2023/01/04 12:20:26;;;;;;;4.17;3.77;;;;;;;10.44;54.36;102659.30;1342665;106;21173;-57
2023/01/04 12:22:53;;;;;;;4.60;3.95;;;;;;;10.46;54.38;102650.19;1343130;106;21187;-57
2023/01/04 12:25:41;;;;;;;5.20;3.67;;;;;;;10.51;54.25;102656.29;1342818;106;21185;-57